sensor_id;sensor_type;location;lat;lon;timestamp;P1;durP1;ratioP1;P2;durP2;ratioP2
57029;SDS011;42920;45.306;20.448;2022-08-07T00:01:07;8.68;;;7.50;;
57029;SDS011;42920;45.306;20.448;2022-08-07T00:03:33;9.00;;;7.65;;
57029;SDS011;42920;45.306;20.448;2022-08-07T00:05:59;8.63;;;7.65;;
57029;SDS011;42920;45.306;20.448;2022-08-07T00:08:26;11.50;;;7.40;;
57029;SDS011;42920;45.306;20.448;2022-08-07T00:10:52;12.35;;;7.80;;
57029;SDS011;42920;45.306;20.448;2022-08-07T00:13:19;11.70;;;8.43;;
57029;SDS011;42920;45.306;20.448;2022-08-07T00:15:45;13.57;;;8.15;;
57029;SDS011;42920;45.306;20.448;2022-08-07T00:18:16;10.27;;;8.02;;
57029;SDS011;42920;45.306;20.448;2022-08-07T00:20:43;13.85;;;7.25;;
57029;SDS011;42920;45.306;20.448;2022-08-07T00:23:09;11.70;;;6.70;;
57029;SDS011;42920;45.306;20.448;2022-08-07T00:25:35;15.90;;;7.68;;
57029;SDS011;42920;45.306;20.448;2022-08-07T00:28:01;11.35;;;7.57;;
57029;SDS011;42920;45.306;20.448;2022-08-07T00:30:27;11.55;;;7.25;;
57029;SDS011;42920;45.306;20.448;2022-08-07T00:32:56;11.82;;;7.35;;
57029;SDS011;42920;45.306;20.448;2022-08-07T00:35:24;11.95;;;7.18;;
57029;SDS011;42920;45.306;20.448;2022-08-07T00:37:50;12.65;;;7.55;;
57029;SDS011;42920;45.306;20.448;2022-08-07T00:40:17;9.07;;;6.95;;
57029;SDS011;42920;45.306;20.448;2022-08-07T00:42:42;11.65;;;6.95;;
57029;SDS011;42920;45.306;20.448;2022-08-07T00:45:09;10.20;;;6.50;;
57029;SDS011;42920;45.306;20.448;2022-08-07T00:47:35;15.00;;;7.00;;
57029;SDS011;42920;45.306;20.448;2022-08-07T00:50:01;9.60;;;6.05;;
57029;SDS011;42920;45.306;20.448;2022-08-07T00:52:27;9.68;;;6.78;;
57029;SDS011;42920;45.306;20.448;2022-08-07T00:54:53;8.95;;;6.22;;
57029;SDS011;42920;45.306;20.448;2022-08-07T00:57:23;9.52;;;6.55;;
57029;SDS011;42920;45.306;20.448;2022-08-07T00:59:49;11.20;;;6.28;;
57029;SDS011;42920;45.306;20.448;2022-08-07T01:02:15;7.78;;;6.25;;
57029;SDS011;42920;45.306;20.448;2022-08-07T01:04:42;14.18;;;7.07;;
57029;SDS011;42920;45.306;20.448;2022-08-07T01:07:07;10.35;;;6.35;;
57029;SDS011;42920;45.306;20.448;2022-08-07T01:09:33;13.20;;;6.90;;
57029;SDS011;42920;45.306;20.448;2022-08-07T01:11:59;10.75;;;6.97;;
57029;SDS011;42920;45.306;20.448;2022-08-07T01:14:25;8.68;;;6.43;;
57029;SDS011;42920;45.306;20.448;2022-08-07T01:16:52;9.82;;;6.60;;
57029;SDS011;42920;45.306;20.448;2022-08-07T01:19:18;10.88;;;6.57;;
57029;SDS011;42920;45.306;20.448;2022-08-07T01:21:46;9.93;;;5.82;;
57029;SDS011;42920;45.306;20.448;2022-08-07T01:24:14;11.00;;;6.05;;
57029;SDS011;42920;45.306;20.448;2022-08-07T01:26:40;9.27;;;5.97;;
57029;SDS011;42920;45.306;20.448;2022-08-07T01:29:07;8.60;;;5.85;;
57029;SDS011;42920;45.306;20.448;2022-08-07T01:31:33;12.82;;;5.72;;
57029;SDS011;42920;45.306;20.448;2022-08-07T01:33:59;9.07;;;5.68;;
57029;SDS011;42920;45.306;20.448;2022-08-07T01:36:26;9.18;;;5.40;;
57029;SDS011;42920;45.306;20.448;2022-08-07T01:38:54;7.57;;;5.55;;
57029;SDS011;42920;45.306;20.448;2022-08-07T01:41:20;11.82;;;5.20;;
57029;SDS011;42920;45.306;20.448;2022-08-07T01:43:47;12.52;;;5.47;;
57029;SDS011;42920;45.306;20.448;2022-08-07T01:46:14;7.80;;;5.03;;
57029;SDS011;42920;45.306;20.448;2022-08-07T01:48:44;5.38;;;4.85;;
57029;SDS011;42920;45.306;20.448;2022-08-07T01:51:18;9.10;;;5.75;;
57029;SDS011;42920;45.306;20.448;2022-08-07T01:53:47;9.88;;;5.50;;
57029;SDS011;42920;45.306;20.448;2022-08-07T01:56:23;8.10;;;5.20;;
57029;SDS011;42920;45.306;20.448;2022-08-07T01:59:05;10.13;;;4.60;;
57029;SDS011;42920;45.306;20.448;2022-08-07T02:01:37;11.13;;;4.93;;
57029;SDS011;42920;45.306;20.448;2022-08-07T02:04:12;9.10;;;4.95;;
57029;SDS011;42920;45.306;20.448;2022-08-07T02:06:42;7.90;;;4.10;;
57029;SDS011;42920;45.306;20.448;2022-08-07T02:09:09;6.03;;;4.13;;
57029;SDS011;42920;45.306;20.448;2022-08-07T02:11:39;6.28;;;4.60;;
57029;SDS011;42920;45.306;20.448;2022-08-07T02:14:07;8.23;;;4.95;;
57029;SDS011;42920;45.306;20.448;2022-08-07T02:16:34;7.50;;;4.50;;
57029;SDS011;42920;45.306;20.448;2022-08-07T02:19:03;5.97;;;5.00;;
57029;SDS011;42920;45.306;20.448;2022-08-07T02:21:32;10.57;;;4.65;;
57029;SDS011;42920;45.306;20.448;2022-08-07T02:24:02;11.60;;;4.65;;
57029;SDS011;42920;45.306;20.448;2022-08-07T02:26:28;8.25;;;4.68;;
57029;SDS011;42920;45.306;20.448;2022-08-07T02:28:54;8.70;;;4.65;;
57029;SDS011;42920;45.306;20.448;2022-08-07T02:31:22;11.38;;;4.53;;
57029;SDS011;42920;45.306;20.448;2022-08-07T02:33:49;12.52;;;4.10;;
57029;SDS011;42920;45.306;20.448;2022-08-07T02:36:16;10.07;;;3.83;;
57029;SDS011;42920;45.306;20.448;2022-08-07T02:38:43;8.20;;;4.80;;
57029;SDS011;42920;45.306;20.448;2022-08-07T02:41:11;5.57;;;3.95;;
57029;SDS011;42920;45.306;20.448;2022-08-07T02:43:38;8.55;;;4.55;;
57029;SDS011;42920;45.306;20.448;2022-08-07T02:46:06;5.10;;;3.88;;
57029;SDS011;42920;45.306;20.448;2022-08-07T02:48:35;6.45;;;4.30;;
57029;SDS011;42920;45.306;20.448;2022-08-07T02:51:04;11.10;;;4.30;;
57029;SDS011;42920;45.306;20.448;2022-08-07T02:53:36;8.23;;;4.22;;
57029;SDS011;42920;45.306;20.448;2022-08-07T02:56:07;5.82;;;4.78;;
57029;SDS011;42920;45.306;20.448;2022-08-07T02:58:39;8.27;;;3.95;;
57029;SDS011;42920;45.306;20.448;2022-08-07T03:01:06;10.55;;;4.45;;
57029;SDS011;42920;45.306;20.448;2022-08-07T03:03:34;12.25;;;4.45;;
57029;SDS011;42920;45.306;20.448;2022-08-07T03:06:02;7.18;;;4.45;;
57029;SDS011;42920;45.306;20.448;2022-08-07T03:08:28;5.00;;;3.70;;
57029;SDS011;42920;45.306;20.448;2022-08-07T03:10:55;6.28;;;3.88;;
57029;SDS011;42920;45.306;20.448;2022-08-07T03:13:23;10.70;;;4.88;;
57029;SDS011;42920;45.306;20.448;2022-08-07T03:15:49;7.45;;;4.25;;
57029;SDS011;42920;45.306;20.448;2022-08-07T03:18:16;19.90;;;4.10;;
57029;SDS011;42920;45.306;20.448;2022-08-07T03:20:43;7.63;;;3.90;;
57029;SDS011;42920;45.306;20.448;2022-08-07T03:23:10;5.47;;;4.43;;
57029;SDS011;42920;45.306;20.448;2022-08-07T03:25:38;6.85;;;3.85;;
57029;SDS011;42920;45.306;20.448;2022-08-07T03:28:09;6.85;;;4.03;;
57029;SDS011;42920;45.306;20.448;2022-08-07T03:30:37;9.82;;;3.90;;
57029;SDS011;42920;45.306;20.448;2022-08-07T03:33:04;6.45;;;3.50;;
57029;SDS011;42920;45.306;20.448;2022-08-07T03:35:33;6.32;;;4.40;;
57029;SDS011;42920;45.306;20.448;2022-08-07T03:38:04;5.68;;;3.67;;
57029;SDS011;42920;45.306;20.448;2022-08-07T03:40:32;9.00;;;4.30;;
57029;SDS011;42920;45.306;20.448;2022-08-07T03:42:59;9.25;;;4.30;;
57029;SDS011;42920;45.306;20.448;2022-08-07T03:45:26;12.38;;;4.85;;
57029;SDS011;42920;45.306;20.448;2022-08-07T03:47:53;7.72;;;4.20;;
57029;SDS011;42920;45.306;20.448;2022-08-07T03:50:20;8.98;;;3.90;;
57029;SDS011;42920;45.306;20.448;2022-08-07T03:52:49;4.35;;;3.58;;
57029;SDS011;42920;45.306;20.448;2022-08-07T03:55:16;10.55;;;3.90;;
57029;SDS011;42920;45.306;20.448;2022-08-07T03:57:42;6.20;;;3.55;;
57029;SDS011;42920;45.306;20.448;2022-08-07T04:00:10;8.20;;;4.03;;
57029;SDS011;42920;45.306;20.448;2022-08-07T04:02:38;10.68;;;4.88;;
57029;SDS011;42920;45.306;20.448;2022-08-07T04:05:07;7.07;;;4.18;;
57029;SDS011;42920;45.306;20.448;2022-08-07T04:07:33;6.82;;;4.13;;
57029;SDS011;42920;45.306;20.448;2022-08-07T04:09:59;5.32;;;4.07;;
57029;SDS011;42920;45.306;20.448;2022-08-07T04:12:26;7.07;;;3.85;;
57029;SDS011;42920;45.306;20.448;2022-08-07T04:14:54;7.10;;;4.15;;
57029;SDS011;42920;45.306;20.448;2022-08-07T04:17:21;4.72;;;4.10;;
57029;SDS011;42920;45.306;20.448;2022-08-07T04:19:48;5.53;;;4.00;;
57029;SDS011;42920;45.306;20.448;2022-08-07T04:22:14;8.95;;;3.70;;
57029;SDS011;42920;45.306;20.448;2022-08-07T04:24:42;6.30;;;4.18;;
57029;SDS011;42920;45.306;20.448;2022-08-07T04:27:08;8.90;;;3.75;;
57029;SDS011;42920;45.306;20.448;2022-08-07T04:29:33;5.18;;;4.03;;
57029;SDS011;42920;45.306;20.448;2022-08-07T04:31:59;7.25;;;4.05;;
57029;SDS011;42920;45.306;20.448;2022-08-07T04:34:26;10.20;;;4.22;;
57029;SDS011;42920;45.306;20.448;2022-08-07T04:36:53;7.22;;;4.03;;
57029;SDS011;42920;45.306;20.448;2022-08-07T04:39:18;5.03;;;4.03;;
57029;SDS011;42920;45.306;20.448;2022-08-07T04:41:44;10.18;;;3.88;;
57029;SDS011;42920;45.306;20.448;2022-08-07T04:44:10;7.20;;;4.18;;
57029;SDS011;42920;45.306;20.448;2022-08-07T04:55:00;5.18;;;4.20;;
57029;SDS011;42920;45.306;20.448;2022-08-07T04:57:50;10.40;;;4.75;;
57029;SDS011;42920;45.306;20.448;2022-08-07T05:00:39;5.43;;;3.83;;
57029;SDS011;42920;45.306;20.448;2022-08-07T05:03:19;7.47;;;4.28;;
57029;SDS011;42920;45.306;20.448;2022-08-07T05:05:59;6.25;;;3.65;;
57029;SDS011;42920;45.306;20.448;2022-08-07T05:08:28;15.05;;;4.00;;
57029;SDS011;42920;45.306;20.448;2022-08-07T05:11:04;7.45;;;4.05;;
57029;SDS011;42920;45.306;20.448;2022-08-07T05:13:40;8.57;;;4.70;;
57029;SDS011;42920;45.306;20.448;2022-08-07T05:16:13;10.73;;;5.60;;
57029;SDS011;42920;45.306;20.448;2022-08-07T05:18:46;9.32;;;4.35;;
57029;SDS011;42920;45.306;20.448;2022-08-07T05:21:17;12.35;;;4.68;;
57029;SDS011;42920;45.306;20.448;2022-08-07T05:23:49;8.77;;;4.85;;
57029;SDS011;42920;45.306;20.448;2022-08-07T05:26:20;14.90;;;6.72;;
57029;SDS011;42920;45.306;20.448;2022-08-07T05:28:50;7.90;;;3.92;;
57029;SDS011;42920;45.306;20.448;2022-08-07T05:31:21;6.57;;;4.72;;
57029;SDS011;42920;45.306;20.448;2022-08-07T05:33:50;6.25;;;4.25;;
57029;SDS011;42920;45.306;20.448;2022-08-07T05:36:17;9.32;;;5.13;;
57029;SDS011;42920;45.306;20.448;2022-08-07T05:38:45;9.48;;;4.43;;
57029;SDS011;42920;45.306;20.448;2022-08-07T05:41:11;6.68;;;4.22;;
57029;SDS011;42920;45.306;20.448;2022-08-07T05:43:38;8.57;;;4.18;;
57029;SDS011;42920;45.306;20.448;2022-08-07T05:46:05;11.35;;;4.38;;
57029;SDS011;42920;45.306;20.448;2022-08-07T05:48:30;8.77;;;4.53;;
57029;SDS011;42920;45.306;20.448;2022-08-07T05:50:56;6.63;;;4.10;;
57029;SDS011;42920;45.306;20.448;2022-08-07T05:53:25;8.20;;;3.78;;
57029;SDS011;42920;45.306;20.448;2022-08-07T05:55:52;10.80;;;4.18;;
57029;SDS011;42920;45.306;20.448;2022-08-07T05:58:20;7.18;;;4.15;;
57029;SDS011;42920;45.306;20.448;2022-08-07T06:00:48;7.65;;;3.70;;
57029;SDS011;42920;45.306;20.448;2022-08-07T06:03:15;8.00;;;4.50;;
57029;SDS011;42920;45.306;20.448;2022-08-07T06:05:44;4.97;;;3.40;;
57029;SDS011;42920;45.306;20.448;2022-08-07T06:08:13;5.65;;;3.97;;
57029;SDS011;42920;45.306;20.448;2022-08-07T06:10:40;8.07;;;4.75;;
57029;SDS011;42920;45.306;20.448;2022-08-07T06:13:07;6.85;;;4.10;;
57029;SDS011;42920;45.306;20.448;2022-08-07T06:15:34;6.82;;;3.85;;
57029;SDS011;42920;45.306;20.448;2022-08-07T06:18:01;9.27;;;4.07;;
57029;SDS011;42920;45.306;20.448;2022-08-07T06:20:29;8.93;;;4.18;;
57029;SDS011;42920;45.306;20.448;2022-08-07T06:22:55;5.35;;;3.95;;
57029;SDS011;42920;45.306;20.448;2022-08-07T06:25:22;9.95;;;4.10;;
57029;SDS011;42920;45.306;20.448;2022-08-07T06:27:47;11.35;;;4.53;;
57029;SDS011;42920;45.306;20.448;2022-08-07T06:30:13;6.63;;;4.15;;
57029;SDS011;42920;45.306;20.448;2022-08-07T06:32:39;7.90;;;4.10;;
57029;SDS011;42920;45.306;20.448;2022-08-07T06:35:05;8.73;;;4.22;;
57029;SDS011;42920;45.306;20.448;2022-08-07T06:37:31;8.27;;;4.25;;
57029;SDS011;42920;45.306;20.448;2022-08-07T06:39:57;5.75;;;4.00;;
57029;SDS011;42920;45.306;20.448;2022-08-07T06:42:26;9.98;;;4.25;;
57029;SDS011;42920;45.306;20.448;2022-08-07T06:45:01;14.57;;;4.25;;
57029;SDS011;42920;45.306;20.448;2022-08-07T06:47:32;7.95;;;4.05;;
57029;SDS011;42920;45.306;20.448;2022-08-07T06:49:59;10.45;;;4.40;;
57029;SDS011;42920;45.306;20.448;2022-08-07T06:52:29;5.10;;;3.60;;
57029;SDS011;42920;45.306;20.448;2022-08-07T06:54:59;6.65;;;3.80;;
57029;SDS011;42920;45.306;20.448;2022-08-07T06:57:25;7.90;;;3.72;;
57029;SDS011;42920;45.306;20.448;2022-08-07T06:59:53;8.32;;;3.92;;
57029;SDS011;42920;45.306;20.448;2022-08-07T07:02:20;10.60;;;4.57;;
57029;SDS011;42920;45.306;20.448;2022-08-07T07:04:49;7.50;;;4.18;;
57029;SDS011;42920;45.306;20.448;2022-08-07T07:07:16;5.93;;;4.18;;
57029;SDS011;42920;45.306;20.448;2022-08-07T07:09:45;7.28;;;4.13;;
57029;SDS011;42920;45.306;20.448;2022-08-07T07:17:47;9.25;;;3.90;;
57029;SDS011;42920;45.306;20.448;2022-08-07T07:20:22;5.80;;;3.85;;
57029;SDS011;42920;45.306;20.448;2022-08-07T07:22:53;6.30;;;3.95;;
57029;SDS011;42920;45.306;20.448;2022-08-07T07:25:19;5.38;;;3.95;;
57029;SDS011;42920;45.306;20.448;2022-08-07T07:27:49;7.80;;;4.03;;
57029;SDS011;42920;45.306;20.448;2022-08-07T07:30:23;7.43;;;4.18;;
57029;SDS011;42920;45.306;20.448;2022-08-07T07:32:54;6.35;;;4.60;;
57029;SDS011;42920;45.306;20.448;2022-08-07T07:35:23;11.95;;;3.92;;
57029;SDS011;42920;45.306;20.448;2022-08-07T07:37:49;10.00;;;4.47;;
57029;SDS011;42920;45.306;20.448;2022-08-07T07:40:17;7.78;;;4.65;;
57029;SDS011;42920;45.306;20.448;2022-08-07T07:42:45;7.20;;;4.30;;
57029;SDS011;42920;45.306;20.448;2022-08-07T07:45:15;7.47;;;4.85;;
57029;SDS011;42920;45.306;20.448;2022-08-07T07:47:44;7.97;;;5.22;;
57029;SDS011;42920;45.306;20.448;2022-08-07T07:50:12;6.88;;;4.53;;
57029;SDS011;42920;45.306;20.448;2022-08-07T07:52:40;11.15;;;4.53;;
57029;SDS011;42920;45.306;20.448;2022-08-07T07:55:07;11.55;;;3.67;;
57029;SDS011;42920;45.306;20.448;2022-08-07T07:57:34;8.52;;;4.22;;
57029;SDS011;42920;45.306;20.448;2022-08-07T08:00:00;8.02;;;4.40;;
57029;SDS011;42920;45.306;20.448;2022-08-07T08:02:29;8.43;;;3.92;;
57029;SDS011;42920;45.306;20.448;2022-08-07T08:04:58;6.10;;;4.22;;
57029;SDS011;42920;45.306;20.448;2022-08-07T08:07:27;11.98;;;3.97;;
57029;SDS011;42920;45.306;20.448;2022-08-07T08:09:55;8.02;;;4.22;;
57029;SDS011;42920;45.306;20.448;2022-08-07T08:12:22;7.45;;;4.38;;
57029;SDS011;42920;45.306;20.448;2022-08-07T08:14:48;7.95;;;4.03;;
57029;SDS011;42920;45.306;20.448;2022-08-07T08:17:14;7.43;;;4.35;;
57029;SDS011;42920;45.306;20.448;2022-08-07T08:19:42;10.25;;;5.90;;
57029;SDS011;42920;45.306;20.448;2022-08-07T08:22:09;7.55;;;4.25;;
57029;SDS011;42920;45.306;20.448;2022-08-07T08:24:54;14.20;;;6.80;;
57029;SDS011;42920;45.306;20.448;2022-08-07T08:27:40;6.22;;;4.68;;
57029;SDS011;42920;45.306;20.448;2022-08-07T08:30:11;11.43;;;4.78;;
57029;SDS011;42920;45.306;20.448;2022-08-07T08:32:39;9.38;;;5.47;;
57029;SDS011;42920;45.306;20.448;2022-08-07T08:35:08;6.13;;;3.80;;
57029;SDS011;42920;45.306;20.448;2022-08-07T08:37:37;6.68;;;4.55;;
57029;SDS011;42920;45.306;20.448;2022-08-07T08:40:06;8.43;;;5.07;;
57029;SDS011;42920;45.306;20.448;2022-08-07T08:45:33;6.63;;;5.35;;
57029;SDS011;42920;45.306;20.448;2022-08-07T08:50:47;8.55;;;5.45;;
57029;SDS011;42920;45.306;20.448;2022-08-07T08:53:29;12.30;;;5.78;;
57029;SDS011;42920;45.306;20.448;2022-08-07T08:56:03;8.23;;;5.57;;
57029;SDS011;42920;45.306;20.448;2022-08-07T09:01:25;11.90;;;6.20;;
57029;SDS011;42920;45.306;20.448;2022-08-07T09:04:02;7.03;;;5.85;;
57029;SDS011;42920;45.306;20.448;2022-08-07T09:17:38;10.70;;;5.72;;
57029;SDS011;42920;45.306;20.448;2022-08-07T09:29:36;15.02;;;5.22;;
57029;SDS011;42920;45.306;20.448;2022-08-07T09:37:19;5.78;;;4.65;;
57029;SDS011;42920;45.306;20.448;2022-08-07T09:39:51;8.00;;;5.25;;
57029;SDS011;42920;45.306;20.448;2022-08-07T09:45:38;9.40;;;4.75;;
57029;SDS011;42920;45.306;20.448;2022-08-07T09:54:07;7.22;;;4.13;;
57029;SDS011;42920;45.306;20.448;2022-08-07T10:05:21;7.15;;;4.18;;
57029;SDS011;42920;45.306;20.448;2022-08-07T10:14:20;9.50;;;6.22;;
57029;SDS011;42920;45.306;20.448;2022-08-07T10:20:03;7.25;;;3.97;;
57029;SDS011;42920;45.306;20.448;2022-08-07T10:22:57;13.05;;;4.32;;
57029;SDS011;42920;45.306;20.448;2022-08-07T10:42:10;8.20;;;4.28;;
57029;SDS011;42920;45.306;20.448;2022-08-07T10:44:45;7.18;;;4.85;;
57029;SDS011;42920;45.306;20.448;2022-08-07T10:50:12;5.25;;;4.20;;
57029;SDS011;42920;45.306;20.448;2022-08-07T10:55:30;9.57;;;5.00;;
57029;SDS011;42920;45.306;20.448;2022-08-07T10:58:19;10.75;;;4.82;;
57029;SDS011;42920;45.306;20.448;2022-08-07T11:03:54;8.10;;;4.30;;
57029;SDS011;42920;45.306;20.448;2022-08-07T11:06:56;6.47;;;4.65;;
57029;SDS011;42920;45.306;20.448;2022-08-07T11:09:21;9.13;;;5.05;;
57029;SDS011;42920;45.306;20.448;2022-08-07T11:11:52;11.45;;;4.57;;
57029;SDS011;42920;45.306;20.448;2022-08-07T11:14:49;18.98;;;7.00;;
57029;SDS011;42920;45.306;20.448;2022-08-07T11:33:23;6.03;;;4.20;;
57029;SDS011;42920;45.306;20.448;2022-08-07T11:36:05;6.35;;;4.75;;
57029;SDS011;42920;45.306;20.448;2022-08-07T11:39:38;6.63;;;4.35;;
57029;SDS011;42920;45.306;20.448;2022-08-07T11:41:58;5.07;;;4.07;;
57029;SDS011;42920;45.306;20.448;2022-08-07T11:44:41;10.18;;;4.70;;
57029;SDS011;42920;45.306;20.448;2022-08-07T11:47:23;7.45;;;4.70;;
57029;SDS011;42920;45.306;20.448;2022-08-07T11:58:54;6.78;;;4.10;;
57029;SDS011;42920;45.306;20.448;2022-08-07T12:01:34;6.95;;;4.28;;
57029;SDS011;42920;45.306;20.448;2022-08-07T12:06:48;6.45;;;4.40;;
57029;SDS011;42920;45.306;20.448;2022-08-07T12:09:24;8.45;;;4.50;;
57029;SDS011;42920;45.306;20.448;2022-08-07T12:12:08;10.27;;;4.82;;
57029;SDS011;42920;45.306;20.448;2022-08-07T12:14:51;11.90;;;4.72;;
57029;SDS011;42920;45.306;20.448;2022-08-07T12:17:37;10.23;;;4.68;;
57029;SDS011;42920;45.306;20.448;2022-08-07T12:20:11;7.68;;;4.35;;
57029;SDS011;42920;45.306;20.448;2022-08-07T12:25:35;5.35;;;4.47;;
57029;SDS011;42920;45.306;20.448;2022-08-07T12:28:19;9.50;;;4.95;;
57029;SDS011;42920;45.306;20.448;2022-08-07T12:30:52;7.07;;;5.07;;
57029;SDS011;42920;45.306;20.448;2022-08-07T12:33:24;5.85;;;4.32;;
57029;SDS011;42920;45.306;20.448;2022-08-07T12:35:53;6.40;;;4.63;;
57029;SDS011;42920;45.306;20.448;2022-08-07T12:38:21;5.50;;;4.07;;
57029;SDS011;42920;45.306;20.448;2022-08-07T12:40:49;5.18;;;4.25;;
57029;SDS011;42920;45.306;20.448;2022-08-07T12:43:18;7.80;;;4.38;;
57029;SDS011;42920;45.306;20.448;2022-08-07T12:48:26;12.98;;;4.20;;
57029;SDS011;42920;45.306;20.448;2022-08-07T12:56:25;8.30;;;4.00;;
57029;SDS011;42920;45.306;20.448;2022-08-07T12:58:55;5.10;;;4.07;;
57029;SDS011;42920;45.306;20.448;2022-08-07T13:10:09;5.68;;;3.67;;
57029;SDS011;42920;45.306;20.448;2022-08-07T13:13:12;6.20;;;4.15;;
57029;SDS011;42920;45.306;20.448;2022-08-07T13:21:47;6.00;;;3.40;;
57029;SDS011;42920;45.306;20.448;2022-08-07T13:27:19;10.43;;;3.80;;
57029;SDS011;42920;45.306;20.448;2022-08-07T13:38:19;14.25;;;7.57;;
57029;SDS011;42920;45.306;20.448;2022-08-07T13:40:54;18.58;;;12.20;;
57029;SDS011;42920;45.306;20.448;2022-08-07T13:43:22;11.88;;;9.63;;
57029;SDS011;42920;45.306;20.448;2022-08-07T13:45:56;35.75;;;22.20;;
57029;SDS011;42920;45.306;20.448;2022-08-07T13:48:26;6.53;;;4.15;;
57029;SDS011;42920;45.306;20.448;2022-08-07T13:50:55;9.98;;;6.43;;
57029;SDS011;42920;45.306;20.448;2022-08-07T13:53:27;10.02;;;6.10;;
57029;SDS011;42920;45.306;20.448;2022-08-07T13:55:57;10.63;;;3.55;;
57029;SDS011;42920;45.306;20.448;2022-08-07T13:58:24;11.82;;;6.45;;
57029;SDS011;42920;45.306;20.448;2022-08-07T14:01:12;7.03;;;3.92;;
57029;SDS011;42920;45.306;20.448;2022-08-07T14:03:40;12.30;;;5.60;;
57029;SDS011;42920;45.306;20.448;2022-08-07T14:06:08;8.57;;;5.43;;
57029;SDS011;42920;45.306;20.448;2022-08-07T14:08:42;9.70;;;4.18;;
57029;SDS011;42920;45.306;20.448;2022-08-07T14:11:14;9.50;;;5.20;;
57029;SDS011;42920;45.306;20.448;2022-08-07T14:13:42;11.23;;;5.13;;
57029;SDS011;42920;45.306;20.448;2022-08-07T14:16:14;11.38;;;7.93;;
57029;SDS011;42920;45.306;20.448;2022-08-07T14:18:46;10.27;;;5.63;;
57029;SDS011;42920;45.306;20.448;2022-08-07T14:23:55;10.38;;;4.10;;
57029;SDS011;42920;45.306;20.448;2022-08-07T14:26:25;7.90;;;4.40;;
57029;SDS011;42920;45.306;20.448;2022-08-07T14:28:56;6.47;;;4.65;;
57029;SDS011;42920;45.306;20.448;2022-08-07T14:31:25;7.70;;;5.65;;
57029;SDS011;42920;45.306;20.448;2022-08-07T14:33:52;7.15;;;4.22;;
57029;SDS011;42920;45.306;20.448;2022-08-07T14:36:19;8.55;;;7.50;;
57029;SDS011;42920;45.306;20.448;2022-08-07T14:38:46;12.73;;;5.90;;
57029;SDS011;42920;45.306;20.448;2022-08-07T14:41:16;10.95;;;6.50;;
57029;SDS011;42920;45.306;20.448;2022-08-07T14:43:49;7.30;;;4.93;;
57029;SDS011;42920;45.306;20.448;2022-08-07T14:46:17;8.73;;;4.75;;
57029;SDS011;42920;45.306;20.448;2022-08-07T14:48:45;7.40;;;4.15;;
57029;SDS011;42920;45.306;20.448;2022-08-07T14:51:13;8.85;;;4.45;;
57029;SDS011;42920;45.306;20.448;2022-08-07T14:53:44;15.80;;;5.38;;
57029;SDS011;42920;45.306;20.448;2022-08-07T14:56:14;11.27;;;5.70;;
57029;SDS011;42920;45.306;20.448;2022-08-07T14:58:46;8.98;;;5.22;;
57029;SDS011;42920;45.306;20.448;2022-08-07T15:01:14;8.25;;;4.80;;
57029;SDS011;42920;45.306;20.448;2022-08-07T15:03:42;8.95;;;4.28;;
57029;SDS011;42920;45.306;20.448;2022-08-07T15:06:09;9.63;;;4.68;;
57029;SDS011;42920;45.306;20.448;2022-08-07T15:08:39;6.57;;;4.72;;
57029;SDS011;42920;45.306;20.448;2022-08-07T15:11:10;6.38;;;4.53;;
57029;SDS011;42920;45.306;20.448;2022-08-07T15:13:51;11.77;;;5.22;;
57029;SDS011;42920;45.306;20.448;2022-08-07T15:16:17;6.95;;;4.35;;
57029;SDS011;42920;45.306;20.448;2022-08-07T15:18:47;10.00;;;5.68;;
57029;SDS011;42920;45.306;20.448;2022-08-07T15:21:19;6.10;;;5.15;;
57029;SDS011;42920;45.306;20.448;2022-08-07T15:23:51;10.35;;;6.07;;
57029;SDS011;42920;45.306;20.448;2022-08-07T15:26:20;8.70;;;4.90;;
57029;SDS011;42920;45.306;20.448;2022-08-07T15:28:55;7.57;;;4.60;;
57029;SDS011;42920;45.306;20.448;2022-08-07T15:31:22;17.48;;;8.30;;
57029;SDS011;42920;45.306;20.448;2022-08-07T15:33:54;7.40;;;4.40;;
57029;SDS011;42920;45.306;20.448;2022-08-07T15:36:22;13.15;;;5.68;;
57029;SDS011;42920;45.306;20.448;2022-08-07T15:38:50;9.23;;;5.15;;
57029;SDS011;42920;45.306;20.448;2022-08-07T15:41:17;19.00;;;6.28;;
57029;SDS011;42920;45.306;20.448;2022-08-07T15:44:03;11.25;;;7.15;;
57029;SDS011;42920;45.306;20.448;2022-08-07T15:46:34;9.85;;;6.00;;
57029;SDS011;42920;45.306;20.448;2022-08-07T15:49:04;19.52;;;13.15;;
57029;SDS011;42920;45.306;20.448;2022-08-07T15:51:33;299.58;;;190.88;;
57029;SDS011;42920;45.306;20.448;2022-08-07T15:54:01;207.05;;;128.68;;
57029;SDS011;42920;45.306;20.448;2022-08-07T15:56:29;224.13;;;133.18;;
57029;SDS011;42920;45.306;20.448;2022-08-07T15:59:00;86.13;;;51.72;;
57029;SDS011;42920;45.306;20.448;2022-08-07T16:01:35;21.20;;;12.05;;
57029;SDS011;42920;45.306;20.448;2022-08-07T16:04:05;133.65;;;73.07;;
57029;SDS011;42920;45.306;20.448;2022-08-07T16:06:36;13.00;;;9.02;;
57029;SDS011;42920;45.306;20.448;2022-08-07T16:09:10;19.57;;;10.87;;
57029;SDS011;42920;45.306;20.448;2022-08-07T16:26:27;8.80;;;5.70;;
57029;SDS011;42920;45.306;20.448;2022-08-07T16:29:23;11.10;;;5.57;;
57029;SDS011;42920;45.306;20.448;2022-08-07T16:32:01;12.38;;;6.15;;
57029;SDS011;42920;45.306;20.448;2022-08-07T16:45:47;6.97;;;4.65;;
57029;SDS011;42920;45.306;20.448;2022-08-07T16:51:07;7.47;;;4.50;;
57029;SDS011;42920;45.306;20.448;2022-08-07T16:53:59;8.80;;;5.22;;
57029;SDS011;42920;45.306;20.448;2022-08-07T17:02:34;8.98;;;4.90;;
57029;SDS011;42920;45.306;20.448;2022-08-07T17:07:51;9.55;;;5.20;;
57029;SDS011;42920;45.306;20.448;2022-08-07T17:10:33;7.40;;;5.38;;
57029;SDS011;42920;45.306;20.448;2022-08-07T17:16:08;10.98;;;4.88;;
57029;SDS011;42920;45.306;20.448;2022-08-07T17:21:28;7.50;;;5.07;;
57029;SDS011;42920;45.306;20.448;2022-08-07T17:27:07;8.13;;;5.50;;
57029;SDS011;42920;45.306;20.448;2022-08-07T17:35:22;10.88;;;5.05;;
57029;SDS011;42920;45.306;20.448;2022-08-07T17:38:10;8.55;;;5.35;;
57029;SDS011;42920;45.306;20.448;2022-08-07T17:40:45;9.48;;;5.13;;
57029;SDS011;42920;45.306;20.448;2022-08-07T17:43:25;5.55;;;4.55;;
57029;SDS011;42920;45.306;20.448;2022-08-07T17:45:57;12.65;;;6.05;;
57029;SDS011;42920;45.306;20.448;2022-08-07T17:49:03;7.47;;;6.13;;
57029;SDS011;42920;45.306;20.448;2022-08-07T17:51:38;11.93;;;5.22;;
57029;SDS011;42920;45.306;20.448;2022-08-07T17:54:21;27.65;;;6.72;;
57029;SDS011;42920;45.306;20.448;2022-08-07T17:57:00;14.48;;;5.43;;
57029;SDS011;42920;45.306;20.448;2022-08-07T17:59:53;8.98;;;5.60;;
57029;SDS011;42920;45.306;20.448;2022-08-07T18:05:29;10.88;;;5.43;;
57029;SDS011;42920;45.306;20.448;2022-08-07T18:08:20;9.52;;;5.55;;
57029;SDS011;42920;45.306;20.448;2022-08-07T18:10:54;9.90;;;5.10;;
57029;SDS011;42920;45.306;20.448;2022-08-07T18:18:57;8.45;;;5.10;;
57029;SDS011;42920;45.306;20.448;2022-08-07T18:21:35;10.88;;;5.28;;
57029;SDS011;42920;45.306;20.448;2022-08-07T18:40:54;8.88;;;5.85;;
57029;SDS011;42920;45.306;20.448;2022-08-07T18:46:21;28.65;;;11.02;;
57029;SDS011;42920;45.306;20.448;2022-08-07T18:51:41;19.00;;;7.60;;
57029;SDS011;42920;45.306;20.448;2022-08-07T18:54:18;13.93;;;6.78;;
57029;SDS011;42920;45.306;20.448;2022-08-07T18:57:09;14.90;;;7.43;;
57029;SDS011;42920;45.306;20.448;2022-08-07T19:07:59;15.57;;;7.45;;
57029;SDS011;42920;45.306;20.448;2022-08-07T19:10:37;13.65;;;7.15;;